sensor_id;sensor_type;location;lat;lon;timestamp;temperature;humidity
55648;DHT22;45266;48.756;9.246;2023-12-22T00:01:08;6.80;86.70
55648;DHT22;45266;48.756;9.246;2023-12-22T00:06:11;6.70;87.30
55648;DHT22;45266;48.756;9.246;2023-12-22T00:11:13;6.60;87.40
55648;DHT22;45266;48.756;9.246;2023-12-22T00:16:15;6.60;87.70
55648;DHT22;45266;48.756;9.246;2023-12-22T00:21:17;6.50;88.30
55648;DHT22;45266;48.756;9.246;2023-12-22T00:26:19;6.50;89.10
55648;DHT22;45266;48.756;9.246;2023-12-22T00:31:21;6.60;90.40
55648;DHT22;45266;48.756;9.246;2023-12-22T00:36:23;6.70;91.00
55648;DHT22;45266;48.756;9.246;2023-12-22T00:41:26;6.80;90.80
55648;DHT22;45266;48.756;9.246;2023-12-22T00:46:28;6.80;90.20
55648;DHT22;45266;48.756;9.246;2023-12-22T00:51:30;7.00;89.00
55648;DHT22;45266;48.756;9.246;2023-12-22T00:56:32;6.90;89.60
55648;DHT22;45266;48.756;9.246;2023-12-22T01:01:33;6.80;91.00
55648;DHT22;45266;48.756;9.246;2023-12-22T01:06:37;6.70;89.70
55648;DHT22;45266;48.756;9.246;2023-12-22T01:11:40;6.60;89.60
55648;DHT22;45266;48.756;9.246;2023-12-22T01:16:42;6.60;90.20
55648;DHT22;45266;48.756;9.246;2023-12-22T01:21:44;6.50;91.40
55648;DHT22;45266;48.756;9.246;2023-12-22T01:26:46;6.40;91.60
55648;DHT22;45266;48.756;9.246;2023-12-22T01:31:48;6.40;90.40
55648;DHT22;45266;48.756;9.246;2023-12-22T01:36:50;6.40;90.60
55648;DHT22;45266;48.756;9.246;2023-12-22T01:41:51;6.30;90.10
55648;DHT22;45266;48.756;9.246;2023-12-22T01:46:53;6.30;89.40
55648;DHT22;45266;48.756;9.246;2023-12-22T01:51:55;6.40;87.90
55648;DHT22;45266;48.756;9.246;2023-12-22T01:56:57;6.50;85.10
55648;DHT22;45266;48.756;9.246;2023-12-22T02:01:59;6.60;82.60
55648;DHT22;45266;48.756;9.246;2023-12-22T02:07:02;6.70;80.90
55648;DHT22;45266;48.756;9.246;2023-12-22T02:12:05;6.80;79.70
55648;DHT22;45266;48.756;9.246;2023-12-22T02:17:18;6.80;78.40
55648;DHT22;45266;48.756;9.246;2023-12-22T02:22:23;6.70;78.70
55648;DHT22;45266;48.756;9.246;2023-12-22T02:27:48;6.70;79.20
55648;DHT22;45266;48.756;9.246;2023-12-22T02:32:54;6.70;78.80
55648;DHT22;45266;48.756;9.246;2023-12-22T02:37:58;6.70;77.80
55648;DHT22;45266;48.756;9.246;2023-12-22T02:43:02;6.70;77.90
55648;DHT22;45266;48.756;9.246;2023-12-22T02:48:04;6.70;77.40
55648;DHT22;45266;48.756;9.246;2023-12-22T02:53:06;6.80;76.40
55648;DHT22;45266;48.756;9.246;2023-12-22T02:58:08;6.80;75.90
55648;DHT22;45266;48.756;9.246;2023-12-22T03:03:10;6.80;75.70
55648;DHT22;45266;48.756;9.246;2023-12-22T03:08:12;6.80;75.90
55648;DHT22;45266;48.756;9.246;2023-12-22T03:13:14;6.80;75.30
55648;DHT22;45266;48.756;9.246;2023-12-22T03:18:15;6.90;75.00
55648;DHT22;45266;48.756;9.246;2023-12-22T03:23:18;6.90;74.70
55648;DHT22;45266;48.756;9.246;2023-12-22T03:28:19;7.00;75.00
55648;DHT22;45266;48.756;9.246;2023-12-22T03:33:22;7.00;74.10
55648;DHT22;45266;48.756;9.246;2023-12-22T03:38:24;7.20;72.70
55648;DHT22;45266;48.756;9.246;2023-12-22T03:43:25;7.20;71.90
55648;DHT22;45266;48.756;9.246;2023-12-22T03:48:27;7.20;72.90
55648;DHT22;45266;48.756;9.246;2023-12-22T03:53:29;7.20;72.10
55648;DHT22;45266;48.756;9.246;2023-12-22T03:58:31;7.20;71.60
55648;DHT22;45266;48.756;9.246;2023-12-22T04:03:33;7.20;71.20
55648;DHT22;45266;48.756;9.246;2023-12-22T04:08:35;7.20;74.70
55648;DHT22;45266;48.756;9.246;2023-12-22T04:13:37;6.90;79.10
55648;DHT22;45266;48.756;9.246;2023-12-22T04:18:39;6.60;82.10
55648;DHT22;45266;48.756;9.246;2023-12-22T04:23:41;6.50;82.80
55648;DHT22;45266;48.756;9.246;2023-12-22T04:28:42;6.40;84.20
55648;DHT22;45266;48.756;9.246;2023-12-22T04:33:44;6.30;85.00
55648;DHT22;45266;48.756;9.246;2023-12-22T04:38:46;6.20;85.90
55648;DHT22;45266;48.756;9.246;2023-12-22T04:43:48;6.30;84.80
55648;DHT22;45266;48.756;9.246;2023-12-22T04:48:50;6.40;83.80
55648;DHT22;45266;48.756;9.246;2023-12-22T04:53:52;6.50;81.30
55648;DHT22;45266;48.756;9.246;2023-12-22T04:58:53;6.50;79.70
55648;DHT22;45266;48.756;9.246;2023-12-22T05:03:55;6.60;78.70
55648;DHT22;45266;48.756;9.246;2023-12-22T05:08:57;6.70;77.20
55648;DHT22;45266;48.756;9.246;2023-12-22T05:13:59;6.80;76.20
55648;DHT22;45266;48.756;9.246;2023-12-22T05:19:03;6.80;75.40
55648;DHT22;45266;48.756;9.246;2023-12-22T05:24:05;6.90;74.60
55648;DHT22;45266;48.756;9.246;2023-12-22T05:29:07;7.00;74.00
55648;DHT22;45266;48.756;9.246;2023-12-22T05:34:09;7.00;73.00
55648;DHT22;45266;48.756;9.246;2023-12-22T05:39:12;7.00;73.20
55648;DHT22;45266;48.756;9.246;2023-12-22T05:44:14;7.00;74.20
55648;DHT22;45266;48.756;9.246;2023-12-22T05:49:16;7.00;75.90
55648;DHT22;45266;48.756;9.246;2023-12-22T05:54:18;6.90;77.50
55648;DHT22;45266;48.756;9.246;2023-12-22T05:59:20;6.70;78.10
55648;DHT22;45266;48.756;9.246;2023-12-22T06:04:22;6.80;76.90
55648;DHT22;45266;48.756;9.246;2023-12-22T06:09:24;6.90;74.80
55648;DHT22;45266;48.756;9.246;2023-12-22T06:14:26;7.00;74.10
55648;DHT22;45266;48.756;9.246;2023-12-22T06:19:28;7.00;72.50
55648;DHT22;45266;48.756;9.246;2023-12-22T06:24:34;7.20;71.80
55648;DHT22;45266;48.756;9.246;2023-12-22T06:29:38;7.20;71.80
55648;DHT22;45266;48.756;9.246;2023-12-22T06:34:39;7.20;71.90
55648;DHT22;45266;48.756;9.246;2023-12-22T06:39:42;7.20;71.90
55648;DHT22;45266;48.756;9.246;2023-12-22T06:44:43;7.30;72.20
55648;DHT22;45266;48.756;9.246;2023-12-22T06:49:45;7.30;71.90
55648;DHT22;45266;48.756;9.246;2023-12-22T06:54:47;7.20;72.30
55648;DHT22;45266;48.756;9.246;2023-12-22T06:59:49;7.30;71.90
55648;DHT22;45266;48.756;9.246;2023-12-22T07:10:21;7.50;70.70
55648;DHT22;45266;48.756;9.246;2023-12-22T07:15:23;7.40;71.40
55648;DHT22;45266;48.756;9.246;2023-12-22T07:20:25;7.40;71.80
55648;DHT22;45266;48.756;9.246;2023-12-22T07:25:26;7.30;73.00
55648;DHT22;45266;48.756;9.246;2023-12-22T07:30:29;7.20;73.40
55648;DHT22;45266;48.756;9.246;2023-12-22T07:35:31;7.20;74.90
55648;DHT22;45266;48.756;9.246;2023-12-22T07:40:33;7.10;75.50
55648;DHT22;45266;48.756;9.246;2023-12-22T07:45:35;7.00;76.10
55648;DHT22;45266;48.756;9.246;2023-12-22T07:50:36;7.00;75.40
55648;DHT22;45266;48.756;9.246;2023-12-22T07:55:39;7.00;76.40
55648;DHT22;45266;48.756;9.246;2023-12-22T08:00:40;7.10;75.90
55648;DHT22;45266;48.756;9.246;2023-12-22T08:05:42;7.10;76.10
55648;DHT22;45266;48.756;9.246;2023-12-22T08:10:44;7.10;77.30
55648;DHT22;45266;48.756;9.246;2023-12-22T08:15:46;7.00;79.60
55648;DHT22;45266;48.756;9.246;2023-12-22T08:20:48;6.80;82.00
55648;DHT22;45266;48.756;9.246;2023-12-22T08:25:52;6.60;83.70
55648;DHT22;45266;48.756;9.246;2023-12-22T08:30:54;6.50;85.50
55648;DHT22;45266;48.756;9.246;2023-12-22T08:35:56;6.40;87.00
55648;DHT22;45266;48.756;9.246;2023-12-22T08:40:57;6.30;88.00
55648;DHT22;45266;48.756;9.246;2023-12-22T08:46:03;6.30;88.20
55648;DHT22;45266;48.756;9.246;2023-12-22T08:51:05;6.30;88.30
55648;DHT22;45266;48.756;9.246;2023-12-22T08:56:07;6.40;87.20
55648;DHT22;45266;48.756;9.246;2023-12-22T09:01:16;6.60;86.40
55648;DHT22;45266;48.756;9.246;2023-12-22T09:06:19;6.70;85.30
55648;DHT22;45266;48.756;9.246;2023-12-22T09:11:21;6.70;84.30
55648;DHT22;45266;48.756;9.246;2023-12-22T09:16:24;6.80;82.90
55648;DHT22;45266;48.756;9.246;2023-12-22T09:21:27;6.90;82.00
55648;DHT22;45266;48.756;9.246;2023-12-22T09:26:28;7.00;80.90
55648;DHT22;45266;48.756;9.246;2023-12-22T09:31:30;7.00;80.20
55648;DHT22;45266;48.756;9.246;2023-12-22T09:36:39;7.10;78.00
55648;DHT22;45266;48.756;9.246;2023-12-22T09:41:56;7.20;77.30
55648;DHT22;45266;48.756;9.246;2023-12-22T09:47:11;7.20;76.50
55648;DHT22;45266;48.756;9.246;2023-12-22T09:52:45;7.20;76.10
55648;DHT22;45266;48.756;9.246;2023-12-22T09:58:26;7.40;75.30
55648;DHT22;45266;48.756;9.246;2023-12-22T10:03:47;7.40;75.30
55648;DHT22;45266;48.756;9.246;2023-12-22T10:09:15;7.50;74.50
55648;DHT22;45266;48.756;9.246;2023-12-22T10:14:45;7.50;73.60
55648;DHT22;45266;48.756;9.246;2023-12-22T10:20:10;7.50;73.90
55648;DHT22;45266;48.756;9.246;2023-12-22T10:25:48;7.50;74.20
55648;DHT22;45266;48.756;9.246;2023-12-22T10:31:16;7.50;73.10
55648;DHT22;45266;48.756;9.246;2023-12-22T10:36:35;7.50;73.50
55648;DHT22;45266;48.756;9.246;2023-12-22T10:41:49;7.60;72.70
55648;DHT22;45266;48.756;9.246;2023-12-22T10:53:31;7.80;73.00
55648;DHT22;45266;48.756;9.246;2023-12-22T10:59:12;7.80;73.20
55648;DHT22;45266;48.756;9.246;2023-12-22T11:05:13;7.80;74.00
55648;DHT22;45266;48.756;9.246;2023-12-22T11:10:43;7.80;74.70
55648;DHT22;45266;48.756;9.246;2023-12-22T11:16:20;7.80;76.20
55648;DHT22;45266;48.756;9.246;2023-12-22T11:22:02;7.80;77.20
55648;DHT22;45266;48.756;9.246;2023-12-22T11:28:05;7.80;78.40
55648;DHT22;45266;48.756;9.246;2023-12-22T11:33:50;7.60;80.00
55648;DHT22;45266;48.756;9.246;2023-12-22T11:39:35;7.50;80.80
55648;DHT22;45266;48.756;9.246;2023-12-22T11:45:17;7.50;81.80
55648;DHT22;45266;48.756;9.246;2023-12-22T11:51:31;7.40;82.70
55648;DHT22;45266;48.756;9.246;2023-12-22T11:57:31;7.40;82.90
55648;DHT22;45266;48.756;9.246;2023-12-22T12:03:19;7.20;84.80
55648;DHT22;45266;48.756;9.246;2023-12-22T12:08:45;7.20;85.50
55648;DHT22;45266;48.756;9.246;2023-12-22T12:14:29;7.20;86.10
55648;DHT22;45266;48.756;9.246;2023-12-22T12:20:32;7.20;86.50
55648;DHT22;45266;48.756;9.246;2023-12-22T12:26:25;7.10;87.30
55648;DHT22;45266;48.756;9.246;2023-12-22T12:32:08;7.10;87.20
55648;DHT22;45266;48.756;9.246;2023-12-22T12:43:52;7.20;87.40
55648;DHT22;45266;48.756;9.246;2023-12-22T12:56:05;7.20;86.90
55648;DHT22;45266;48.756;9.246;2023-12-22T13:01:29;7.20;86.20
55648;DHT22;45266;48.756;9.246;2023-12-22T13:06:53;7.20;86.90
55648;DHT22;45266;48.756;9.246;2023-12-22T13:12:23;7.20;87.10
55648;DHT22;45266;48.756;9.246;2023-12-22T13:17:49;7.20;87.20
55648;DHT22;45266;48.756;9.246;2023-12-22T13:23:20;7.20;87.10
55648;DHT22;45266;48.756;9.246;2023-12-22T13:28:28;7.30;87.10
55648;DHT22;45266;48.756;9.246;2023-12-22T13:33:43;7.40;87.40
55648;DHT22;45266;48.756;9.246;2023-12-22T13:39:12;7.50;87.30
55648;DHT22;45266;48.756;9.246;2023-12-22T13:44:45;7.50;87.20
55648;DHT22;45266;48.756;9.246;2023-12-22T13:50:19;7.80;86.60
55648;DHT22;45266;48.756;9.246;2023-12-22T13:55:45;7.90;86.40
55648;DHT22;45266;48.756;9.246;2023-12-22T14:01:24;8.20;84.60
55648;DHT22;45266;48.756;9.246;2023-12-22T14:06:50;8.40;83.50
55648;DHT22;45266;48.756;9.246;2023-12-22T14:12:05;8.50;82.90
55648;DHT22;45266;48.756;9.246;2023-12-22T14:17:48;8.60;82.10
55648;DHT22;45266;48.756;9.246;2023-12-22T14:23:36;8.60;81.90
55648;DHT22;45266;48.756;9.246;2023-12-22T14:29:20;8.70;81.50
55648;DHT22;45266;48.756;9.246;2023-12-22T14:34:58;8.80;81.00
55648;DHT22;45266;48.756;9.246;2023-12-22T14:40:28;8.80;80.10
55648;DHT22;45266;48.756;9.246;2023-12-22T14:46:26;8.90;79.90
55648;DHT22;45266;48.756;9.246;2023-12-22T14:52:18;8.90;79.60
55648;DHT22;45266;48.756;9.246;2023-12-22T14:58:00;9.00;79.40
55648;DHT22;45266;48.756;9.246;2023-12-22T15:03:38;9.00;79.30
55648;DHT22;45266;48.756;9.246;2023-12-22T15:09:28;9.00;78.90
55648;DHT22;45266;48.756;9.246;2023-12-22T15:15:11;9.00;78.40
55648;DHT22;45266;48.756;9.246;2023-12-22T15:20:54;9.10;77.70
55648;DHT22;45266;48.756;9.246;2023-12-22T15:26:25;9.10;77.70
55648;DHT22;45266;48.756;9.246;2023-12-22T15:32:04;9.10;78.00
55648;DHT22;45266;48.756;9.246;2023-12-22T15:44:12;9.10;78.30
55648;DHT22;45266;48.756;9.246;2023-12-22T15:49:25;9.20;77.30
55648;DHT22;45266;48.756;9.246;2023-12-22T15:54:43;9.20;77.30
55648;DHT22;45266;48.756;9.246;2023-12-22T15:59:52;9.20;76.50
55648;DHT22;45266;48.756;9.246;2023-12-22T16:04:58;9.20;76.00
55648;DHT22;45266;48.756;9.246;2023-12-22T16:10:17;9.20;75.30
55648;DHT22;45266;48.756;9.246;2023-12-22T16:15:30;9.20;75.50
55648;DHT22;45266;48.756;9.246;2023-12-22T16:20:48;9.20;76.20
55648;DHT22;45266;48.756;9.246;2023-12-22T16:26:01;9.20;76.10
55648;DHT22;45266;48.756;9.246;2023-12-22T16:31:14;9.20;75.50
55648;DHT22;45266;48.756;9.246;2023-12-22T16:36:31;9.20;75.20
55648;DHT22;45266;48.756;9.246;2023-12-22T16:41:47;9.20;75.20
55648;DHT22;45266;48.756;9.246;2023-12-22T16:47:00;9.30;75.20
55648;DHT22;45266;48.756;9.246;2023-12-22T16:52:13;9.30;75.50
55648;DHT22;45266;48.756;9.246;2023-12-22T17:10:25;9.20;76.00
55648;DHT22;45266;48.756;9.246;2023-12-22T17:15:47;9.20;76.00
55648;DHT22;45266;48.756;9.246;2023-12-22T17:21:06;9.30;75.70
55648;DHT22;45266;48.756;9.246;2023-12-22T17:26:45;9.40;75.20
55648;DHT22;45266;48.756;9.246;2023-12-22T17:32:34;9.40;74.70
55648;DHT22;45266;48.756;9.246;2023-12-22T17:44:32;9.40;75.40
55648;DHT22;45266;48.756;9.246;2023-12-22T17:50:12;9.30;75.60
55648;DHT22;45266;48.756;9.246;2023-12-22T18:02:31;9.40;74.90
55648;DHT22;45266;48.756;9.246;2023-12-22T18:08:14;9.40;74.80
55648;DHT22;45266;48.756;9.246;2023-12-22T18:13:35;9.40;74.80
55648;DHT22;45266;48.756;9.246;2023-12-22T18:19:02;9.40;74.70
55648;DHT22;45266;48.756;9.246;2023-12-22T18:24:46;9.40;74.70
55648;DHT22;45266;48.756;9.246;2023-12-22T18:29:52;9.40;74.30
55648;DHT22;45266;48.756;9.246;2023-12-22T18:35:18;9.40;74.10
55648;DHT22;45266;48.756;9.246;2023-12-22T18:41:08;9.30;74.70
55648;DHT22;45266;48.756;9.246;2023-12-22T18:46:55;9.30;74.70
55648;DHT22;45266;48.756;9.246;2023-12-22T18:52:11;9.20;75.10
55648;DHT22;45266;48.756;9.246;2023-12-22T18:57:52;9.20;75.00
55648;DHT22;45266;48.756;9.246;2023-12-22T19:03:31;9.20;74.60
55648;DHT22;45266;48.756;9.246;2023-12-22T19:08:45;9.20;74.80
55648;DHT22;45266;48.756;9.246;2023-12-22T19:14:02;9.20;74.90
55648;DHT22;45266;48.756;9.246;2023-12-22T19:19:16;9.20;75.40
55648;DHT22;45266;48.756;9.246;2023-12-22T19:24:34;9.20;75.10
55648;DHT22;45266;48.756;9.246;2023-12-22T19:29:52;9.20;74.60
55648;DHT22;45266;48.756;9.246;2023-12-22T19:35:24;9.20;74.60
55648;DHT22;45266;48.756;9.246;2023-12-22T19:41:10;9.10;74.60
55648;DHT22;45266;48.756;9.246;2023-12-22T19:47:01;9.10;75.00
55648;DHT22;45266;48.756;9.246;2023-12-22T19:52:24;9.00;75.00
55648;DHT22;45266;48.756;9.246;2023-12-22T19:57:47;9.00;75.00
55648;DHT22;45266;48.756;9.246;2023-12-22T20:03:10;9.00;74.60
55648;DHT22;45266;48.756;9.246;2023-12-22T20:08:30;9.00;74.40
55648;DHT22;45266;48.756;9.246;2023-12-22T20:13:54;9.00;74.50
55648;DHT22;45266;48.756;9.246;2023-12-22T20:19:46;9.00;74.60
55648;DHT22;45266;48.756;9.246;2023-12-22T20:25:38;9.00;74.60
55648;DHT22;45266;48.756;9.246;2023-12-22T20:30:57;9.00;74.50
55648;DHT22;45266;48.756;9.246;2023-12-22T20:36:17;9.00;74.60
55648;DHT22;45266;48.756;9.246;2023-12-22T20:41:58;9.00;74.80
55648;DHT22;45266;48.756;9.246;2023-12-22T20:47:10;9.00;74.70
55648;DHT22;45266;48.756;9.246;2023-12-22T20:52:28;9.00;74.90
55648;DHT22;45266;48.756;9.246;2023-12-22T20:57:55;9.00;75.00
55648;DHT22;45266;48.756;9.246;2023-12-22T21:03:15;8.90;75.20
55648;DHT22;45266;48.756;9.246;2023-12-22T21:08:34;8.90;75.10
55648;DHT22;45266;48.756;9.246;2023-12-22T21:13:52;8.90;75.10
55648;DHT22;45266;48.756;9.246;2023-12-22T21:25:45;8.90;75.40
55648;DHT22;45266;48.756;9.246;2023-12-22T21:31:08;8.90;75.40
55648;DHT22;45266;48.756;9.246;2023-12-22T21:36:27;8.90;74.90
55648;DHT22;45266;48.756;9.246;2023-12-22T21:41:47;8.90;74.60
55648;DHT22;45266;48.756;9.246;2023-12-22T21:47:06;8.90;74.90
55648;DHT22;45266;48.756;9.246;2023-12-22T21:52:35;8.80;75.00
55648;DHT22;45266;48.756;9.246;2023-12-22T21:57:44;8.90;74.50
55648;DHT22;45266;48.756;9.246;2023-12-22T22:03:06;8.90;74.30
55648;DHT22;45266;48.756;9.246;2023-12-22T22:08:30;8.90;73.80
55648;DHT22;45266;48.756;9.246;2023-12-22T22:13:47;8.90;74.00
55648;DHT22;45266;48.756;9.246;2023-12-22T22:19:03;8.90;74.20
55648;DHT22;45266;48.756;9.246;2023-12-22T22:24:23;8.80;74.30
55648;DHT22;45266;48.756;9.246;2023-12-22T22:29:46;8.80;74.50
55648;DHT22;45266;48.756;9.246;2023-12-22T22:35:01;8.80;74.20
55648;DHT22;45266;48.756;9.246;2023-12-22T22:40:49;8.80;74.20
55648;DHT22;45266;48.756;9.246;2023-12-22T22:45:57;8.80;73.90
55648;DHT22;45266;48.756;9.246;2023-12-22T22:51:24;8.80;73.40
55648;DHT22;45266;48.756;9.246;2023-12-22T22:56:40;8.90;73.00
55648;DHT22;45266;48.756;9.246;2023-12-22T23:01:56;8.90;72.80
55648;DHT22;45266;48.756;9.246;2023-12-22T23:07:08;8.80;73.00
55648;DHT22;45266;48.756;9.246;2023-12-22T23:12:22;8.90;72.70
55648;DHT22;45266;48.756;9.246;2023-12-22T23:17:35;8.80;72.80
55648;DHT22;45266;48.756;9.246;2023-12-22T23:22:45;8.80;72.70
55648;DHT22;45266;48.756;9.246;2023-12-22T23:27:55;8.70;73.30
55648;DHT22;45266;48.756;9.246;2023-12-22T23:33:10;8.70;73.20
55648;DHT22;45266;48.756;9.246;2023-12-22T23:38:26;8.60;73.50
55648;DHT22;45266;48.756;9.246;2023-12-22T23:43:37;8.60;73.80
55648;DHT22;45266;48.756;9.246;2023-12-22T23:48:47;8.60;73.30
55648;DHT22;45266;48.756;9.246;2023-12-22T23:53:59;8.60;73.40
55648;DHT22;45266;48.756;9.246;2023-12-22T23:59:22;8.70;73.00
